PWSweather.com
Personal Weather Stations
Station Observations
KMICHEBO10
Cordwood Point, Lake Huron, Cheboygan, MI 49721

Cordwood Point, Lake HuronCheboygan, MI 49721

Lat: 45.663372, Lon: -84.3327789

Elevation: 598

Station Type: Davis Vantage Pro2 Wireless

https://www.lakehuronweather.org

High Low Average
Temperature 20.3°F-6.5°C 9.0°F-12.8°C 15.1°F-9.4°C
Dew Point 15.1°F-9.4°C 6.4°F-14.2°C 11.5°F-11.4°C
Winds 5.8 mph 9.3 kmh Calm Calm 2.0 mph SSE3.2 kmh SSE
Wind Gusts 11.5 mph18.5 kmh -- 3.0 mph4.8 kmh
Humidity 91% 79% 86%
Pressure 30.34 in1027.4 mb 30.07 in1018.3 mb -
Precipitation 0.00 in0.0 mm - -
Hour Temp Dew Point Humidity Winds Wind Gusts Pressure Precip Precip Rate Daily Precip Total
12:00 AM 17.7°F-7.9°C 15.0°F-9.4°C 89% 2.3 mph NNW3.7 kmh NNW 4.6 mph7.4 kmh 30.02 in1016.6 mb - 0.00 in0.0 mm 0.00 in0.0 mm
12:10 AM 17.7°F-7.9°C 15.0°F-9.4°C 89% 4.6 mph N7.4 kmh N 4.6 mph7.4 kmh 30.03 in1016.9 mb - 0.00 in0.0 mm 0.00 in0.0 mm
12:20 AM 17.4°F-8.1°C 14.7°F-9.6°C 89% 3.5 mph N5.6 kmh N 6.9 mph11.1 kmh 30.04 in1017.3 mb - 0.00 in0.0 mm 0.00 in0.0 mm
12:30 AM 16.7°F-8.5°C 14.0°F-10.0°C 89% 5.8 mph N9.3 kmh N 9.2 mph14.8 kmh 30.04 in1017.3 mb - 0.00 in0.0 mm 0.00 in0.0 mm
12:40 AM 15.7°F-9.1°C 12.6°F-10.8°C 87% 5.8 mph N9.3 kmh N 5.8 mph9.3 kmh 30.05 in1017.6 mb - 0.00 in0.0 mm 0.00 in0.0 mm
12:50 AM 15.1°F-9.4°C 11.6°F-11.3°C 86% 3.5 mph NNE5.6 kmh NNE 4.6 mph7.4 kmh 30.06 in1017.9 mb - 0.00 in0.0 mm 0.00 in0.0 mm
01:00 AM 14.6°F-9.7°C 11.4°F-11.4°C 87% 3.5 mph N5.6 kmh N 8.1 mph13.0 kmh 30.07 in1018.3 mb - 0.00 in0.0 mm 0.00 in0.0 mm
01:10 AM 14.5°F-9.7°C 11.6°F-11.3°C 88% 4.6 mph N7.4 kmh N 9.2 mph14.8 kmh 30.08 in1018.6 mb - 0.00 in0.0 mm 0.00 in0.0 mm
01:20 AM 14.4°F-9.8°C 11.5°F-11.4°C 88% 2.3 mph N3.7 kmh N 3.5 mph5.6 kmh 30.08 in1018.6 mb - 0.00 in0.0 mm 0.00 in0.0 mm
01:30 AM 14.1°F-9.9°C 10.9°F-11.7°C 87% 3.5 mph N5.6 kmh N 6.9 mph11.1 kmh 30.09 in1019.0 mb - 0.00 in0.0 mm 0.00 in0.0 mm
01:40 AM 14.1°F-9.9°C 11.2°F-11.6°C 88% 4.6 mph N7.4 kmh N 5.8 mph9.3 kmh 30.09 in1019.0 mb - 0.00 in0.0 mm 0.00 in0.0 mm
01:50 AM 14.3°F-9.8°C 11.7°F-11.3°C 89% 5.8 mph NNW9.3 kmh NNW 9.2 mph14.8 kmh 30.10 in1019.3 mb - 0.00 in0.0 mm 0.00 in0.0 mm
02:00 AM 14.2°F-9.9°C 11.3°F-11.5°C 88% 4.6 mph N7.4 kmh N 8.1 mph13.0 kmh 30.10 in1019.3 mb - 0.00 in0.0 mm 0.00 in0.0 mm
02:10 AM 14.3°F-9.8°C 11.7°F-11.3°C 89% 3.5 mph N5.6 kmh N 4.6 mph7.4 kmh 30.10 in1019.3 mb - 0.00 in0.0 mm 0.00 in0.0 mm
02:20 AM 14.3°F-9.8°C 11.4°F-11.4°C 88% 2.3 mph N3.7 kmh N 5.8 mph9.3 kmh 30.11 in1019.6 mb - 0.00 in0.0 mm 0.00 in0.0 mm
02:30 AM 14.1°F-9.9°C 11.2°F-11.6°C 88% 3.5 mph N5.6 kmh N 11.5 mph18.5 kmh 30.11 in1019.6 mb - 0.00 in0.0 mm 0.00 in0.0 mm
02:40 AM 13.9°F-10.1°C 11.0°F-11.7°C 88% 3.5 mph N5.6 kmh N 4.6 mph7.4 kmh 30.12 in1020.0 mb - 0.00 in0.0 mm 0.00 in0.0 mm
02:50 AM 13.9°F-10.1°C 11.3°F-11.5°C 89% 3.5 mph N5.6 kmh N 9.2 mph14.8 kmh 30.12 in1020.0 mb - 0.00 in0.0 mm 0.00 in0.0 mm
03:00 AM 13.9°F-10.1°C 11.3°F-11.5°C 89% 3.5 mph NNW5.6 kmh NNW 5.8 mph9.3 kmh 30.13 in1020.3 mb - 0.00 in0.0 mm 0.00 in0.0 mm
03:10 AM 13.8°F-10.1°C 11.2°F-11.6°C 89% 4.6 mph N7.4 kmh N 9.2 mph14.8 kmh 30.13 in1020.3 mb - 0.00 in0.0 mm 0.00 in0.0 mm
03:20 AM 13.7°F-10.2°C 11.1°F-11.6°C 89% 4.6 mph N7.4 kmh N 5.8 mph9.3 kmh 30.14 in1020.7 mb - 0.00 in0.0 mm 0.00 in0.0 mm
03:30 AM 13.9°F-10.1°C 11.2°F-11.6°C 89% 3.5 mph N5.6 kmh N 4.6 mph7.4 kmh 30.14 in1020.7 mb - 0.00 in0.0 mm 0.00 in0.0 mm
03:40 AM 14.0°F-10.0°C 11.3°F-11.5°C 89% 3.5 mph N5.6 kmh N 4.6 mph7.4 kmh 30.14 in1020.7 mb - 0.00 in0.0 mm 0.00 in0.0 mm
03:50 AM 13.9°F-10.1°C 11.3°F-11.5°C 89% 3.5 mph N5.6 kmh N 8.1 mph13.0 kmh 30.15 in1021.0 mb - 0.00 in0.0 mm 0.00 in0.0 mm
04:00 AM 13.7°F-10.2°C 10.8°F-11.8°C 88% 4.6 mph N7.4 kmh N 6.9 mph11.1 kmh 30.16 in1021.3 mb - 0.00 in0.0 mm 0.00 in0.0 mm
04:10 AM 13.6°F-10.2°C 10.7°F-11.8°C 88% 3.5 mph NNW5.6 kmh NNW 3.5 mph5.6 kmh 30.17 in1021.7 mb - 0.00 in0.0 mm 0.00 in0.0 mm
04:20 AM 13.5°F-10.3°C 10.1°F-12.2°C 86% 3.5 mph N5.6 kmh N 4.6 mph7.4 kmh 30.17 in1021.7 mb - 0.00 in0.0 mm 0.00 in0.0 mm
04:30 AM 13.3°F-10.4°C 10.2°F-12.1°C 87% 2.3 mph N3.7 kmh N 3.5 mph5.6 kmh 30.17 in1021.7 mb - 0.00 in0.0 mm 0.00 in0.0 mm
04:40 AM 13.3°F-10.4°C 10.2°F-12.1°C 87% 2.3 mph NNW3.7 kmh NNW 4.6 mph7.4 kmh 30.18 in1022.0 mb - 0.00 in0.0 mm 0.00 in0.0 mm
04:50 AM 13.3°F-10.4°C 10.2°F-12.1°C 87% 4.6 mph NNW7.4 kmh NNW 9.2 mph14.8 kmh 30.18 in1022.0 mb - 0.00 in0.0 mm 0.00 in0.0 mm
05:00 AM 13.5°F-10.3°C 10.3°F-12.1°C 87% 2.3 mph N3.7 kmh N 2.3 mph3.7 kmh 30.18 in1022.0 mb - 0.00 in0.0 mm 0.00 in0.0 mm
05:10 AM 13.6°F-10.2°C 10.4°F-12.0°C 87% 1.2 mph NNW1.9 kmh NNW 2.3 mph3.7 kmh 30.18 in1022.0 mb - 0.00 in0.0 mm 0.00 in0.0 mm
05:20 AM 13.6°F-10.2°C 10.2°F-12.1°C 86% 1.2 mph N1.9 kmh N 2.3 mph3.7 kmh 30.18 in1022.0 mb - 0.00 in0.0 mm 0.00 in0.0 mm
05:30 AM 13.5°F-10.3°C 10.1°F-12.2°C 86% 1.2 mph N1.9 kmh N 3.5 mph5.6 kmh 30.19 in1022.4 mb - 0.00 in0.0 mm 0.00 in0.0 mm
05:40 AM 13.4°F-10.3°C 9.7°F-12.4°C 85% 1.2 mph N1.9 kmh N 3.5 mph5.6 kmh 30.19 in1022.4 mb - 0.00 in0.0 mm 0.00 in0.0 mm
05:50 AM 13.2°F-10.4°C 9.5°F-12.5°C 85% 1.2 mph N1.9 kmh N 3.5 mph5.6 kmh 30.20 in1022.7 mb - 0.00 in0.0 mm 0.00 in0.0 mm
06:00 AM 13.1°F-10.5°C 9.7°F-12.4°C 86% 1.2 mph N1.9 kmh N 3.5 mph5.6 kmh 30.20 in1022.7 mb - 0.00 in0.0 mm 0.00 in0.0 mm
06:10 AM 13.1°F-10.5°C 9.7°F-12.4°C 86% 1.2 mph N1.9 kmh N 1.2 mph1.9 kmh 30.20 in1022.7 mb - 0.00 in0.0 mm 0.00 in0.0 mm
06:20 AM 13.2°F-10.4°C 9.8°F-12.3°C 86% 1.2 mph N1.9 kmh N 2.3 mph3.7 kmh 30.21 in1023.0 mb - 0.00 in0.0 mm 0.00 in0.0 mm
06:30 AM 13.1°F-10.5°C 9.7°F-12.4°C 86% 1.2 mph NNW1.9 kmh NNW 2.3 mph3.7 kmh 30.21 in1023.0 mb - 0.00 in0.0 mm 0.00 in0.0 mm
06:40 AM 13.0°F-10.6°C 9.6°F-12.4°C 86% 1.2 mph N1.9 kmh N 2.3 mph3.7 kmh 30.21 in1023.0 mb - 0.00 in0.0 mm 0.00 in0.0 mm
06:50 AM 12.9°F-10.6°C 9.5°F-12.5°C 86% Calm Calm 2.3 mph3.7 kmh 30.21 in1023.0 mb - 0.00 in0.0 mm 0.00 in0.0 mm
07:00 AM 12.9°F-10.6°C 9.8°F-12.3°C 87% Calm Calm 2.3 mph3.7 kmh 30.21 in1023.0 mb - 0.00 in0.0 mm 0.00 in0.0 mm
07:10 AM 12.9°F-10.6°C 9.8°F-12.3°C 87% Calm Calm 1.2 mph1.9 kmh 30.22 in1023.4 mb - 0.00 in0.0 mm 0.00 in0.0 mm
07:20 AM 12.9°F-10.6°C 9.8°F-12.3°C 87% 1.2 mph NNE1.9 kmh NNE 3.5 mph5.6 kmh 30.22 in1023.4 mb - 0.00 in0.0 mm 0.00 in0.0 mm
07:30 AM 12.9°F-10.6°C 9.8°F-12.3°C 87% 1.2 mph NE1.9 kmh NE 1.2 mph1.9 kmh 30.23 in1023.7 mb - 0.00 in0.0 mm 0.00 in0.0 mm
07:40 AM 12.8°F-10.7°C 9.7°F-12.4°C 87% Calm Calm 2.3 mph3.7 kmh 30.23 in1023.7 mb - 0.00 in0.0 mm 0.00 in0.0 mm
07:50 AM 12.8°F-10.7°C 9.7°F-12.4°C 87% Calm Calm 1.2 mph1.9 kmh 30.23 in1023.7 mb - 0.00 in0.0 mm 0.00 in0.0 mm
08:00 AM 12.8°F-10.7°C 9.7°F-12.4°C 87% Calm Calm 1.2 mph1.9 kmh 30.23 in1023.7 mb - 0.00 in0.0 mm 0.00 in0.0 mm
08:10 AM 12.8°F-10.7°C 9.7°F-12.4°C 87% 1.2 mph NNE1.9 kmh NNE 2.3 mph3.7 kmh 30.24 in1024.0 mb - 0.00 in0.0 mm 0.00 in0.0 mm
08:20 AM 12.8°F-10.7°C 9.7°F-12.4°C 87% Calm Calm 1.2 mph1.9 kmh 30.24 in1024.0 mb - 0.00 in0.0 mm 0.00 in0.0 mm
08:30 AM 12.8°F-10.7°C 9.7°F-12.4°C 87% Calm Calm 1.2 mph1.9 kmh 30.25 in1024.4 mb - 0.00 in0.0 mm 0.00 in0.0 mm
08:40 AM 12.9°F-10.6°C 10.0°F-12.2°C 88% 1.2 mph ENE1.9 kmh ENE 2.3 mph3.7 kmh 30.25 in1024.4 mb - 0.00 in0.0 mm 0.00 in0.0 mm
08:50 AM 12.8°F-10.7°C 9.7°F-12.4°C 87% 1.2 mph ENE1.9 kmh ENE 1.2 mph1.9 kmh 30.26 in1024.7 mb - 0.00 in0.0 mm 0.00 in0.0 mm
09:00 AM 12.7°F-10.7°C 9.6°F-12.4°C 87% Calm Calm 1.2 mph1.9 kmh 30.26 in1024.7 mb - 0.00 in0.0 mm 0.00 in0.0 mm
09:10 AM 12.6°F-10.8°C 9.5°F-12.5°C 87% Calm Calm 2.3 mph3.7 kmh 30.26 in1024.7 mb - 0.00 in0.0 mm 0.00 in0.0 mm
09:20 AM 12.6°F-10.8°C 9.5°F-12.5°C 87% 1.2 mph ENE1.9 kmh ENE 1.2 mph1.9 kmh 30.26 in1024.7 mb - 0.00 in0.0 mm 0.00 in0.0 mm
09:30 AM 12.5°F-10.8°C 9.4°F-12.6°C 87% Calm Calm 1.2 mph1.9 kmh 30.26 in1024.7 mb - 0.00 in0.0 mm 0.00 in0.0 mm
09:40 AM 12.6°F-10.8°C 9.5°F-12.5°C 87% 1.2 mph NE1.9 kmh NE 2.3 mph3.7 kmh 30.27 in1025.1 mb - 0.00 in0.0 mm 0.00 in0.0 mm
09:50 AM 12.7°F-10.7°C 9.6°F-12.4°C 87% 2.3 mph ENE3.7 kmh ENE 3.5 mph5.6 kmh 30.27 in1025.1 mb - 0.00 in0.0 mm 0.00 in0.0 mm
10:00 AM 12.9°F-10.6°C 9.8°F-12.3°C 87% 1.2 mph NE1.9 kmh NE 2.3 mph3.7 kmh 30.27 in1025.1 mb - 0.00 in0.0 mm 0.00 in0.0 mm
10:10 AM 13.1°F-10.5°C 9.7°F-12.4°C 86% Calm Calm 1.2 mph1.9 kmh 30.27 in1025.1 mb - 0.00 in0.0 mm 0.00 in0.0 mm
10:20 AM 13.2°F-10.4°C 9.5°F-12.5°C 85% 1.2 mph ENE1.9 kmh ENE 4.6 mph7.4 kmh 30.27 in1025.1 mb - 0.00 in0.0 mm 0.00 in0.0 mm
10:30 AM 13.5°F-10.3°C 9.8°F-12.3°C 85% 2.3 mph ENE3.7 kmh ENE 4.6 mph7.4 kmh 30.27 in1025.1 mb - 0.00 in0.0 mm 0.00 in0.0 mm
10:40 AM 13.6°F-10.2°C 9.7°F-12.4°C 84% 3.5 mph ENE5.6 kmh ENE 3.5 mph5.6 kmh 30.27 in1025.1 mb - 0.00 in0.0 mm 0.00 in0.0 mm
10:50 AM 13.9°F-10.1°C 10.0°F-12.2°C 84% 2.3 mph NE3.7 kmh NE 5.8 mph9.3 kmh 30.27 in1025.1 mb - 0.00 in0.0 mm 0.00 in0.0 mm
11:00 AM 14.1°F-9.9°C 10.2°F-12.1°C 84% 4.6 mph ENE7.4 kmh ENE 5.8 mph9.3 kmh 30.27 in1025.1 mb - 0.00 in0.0 mm 0.00 in0.0 mm
11:10 AM 14.1°F-9.9°C 10.2°F-12.1°C 84% 3.5 mph E5.6 kmh E 5.8 mph9.3 kmh 30.28 in1025.4 mb - 0.00 in0.0 mm 0.00 in0.0 mm
11:20 AM 14.3°F-9.8°C 10.1°F-12.2°C 83% 3.5 mph NE5.6 kmh NE 5.8 mph9.3 kmh 30.28 in1025.4 mb - 0.00 in0.0 mm 0.00 in0.0 mm
11:30 AM 14.5°F-9.7°C 10.3°F-12.1°C 83% 3.5 mph E5.6 kmh E 4.6 mph7.4 kmh 30.28 in1025.4 mb - 0.00 in0.0 mm 0.00 in0.0 mm
11:40 AM 14.8°F-9.6°C 10.6°F-11.9°C 83% 2.3 mph E3.7 kmh E 5.8 mph9.3 kmh 30.28 in1025.4 mb - 0.00 in0.0 mm 0.00 in0.0 mm
11:50 AM 15.0°F-9.4°C 10.8°F-11.8°C 83% 3.5 mph NE5.6 kmh NE 5.8 mph9.3 kmh 30.28 in1025.4 mb - 0.00 in0.0 mm 0.00 in0.0 mm
12:00 PM 15.3°F-9.3°C 11.1°F-11.6°C 83% 3.5 mph ENE5.6 kmh ENE 4.6 mph7.4 kmh 30.29 in1025.7 mb - 0.00 in0.0 mm 0.00 in0.0 mm
12:10 PM 15.6°F-9.1°C 11.3°F-11.5°C 83% 1.2 mph E1.9 kmh E 3.5 mph5.6 kmh 30.29 in1025.7 mb - 0.00 in0.0 mm 0.00 in0.0 mm
12:20 PM 16.0°F-8.9°C 11.5°F-11.4°C 82% 3.5 mph NE5.6 kmh NE 6.9 mph11.1 kmh 30.30 in1026.1 mb - 0.00 in0.0 mm 0.00 in0.0 mm
12:30 PM 16.2°F-8.8°C 11.7°F-11.3°C 82% 2.3 mph E3.7 kmh E 3.5 mph5.6 kmh 30.30 in1026.1 mb - 0.00 in0.0 mm 0.00 in0.0 mm
12:40 PM 16.3°F-8.7°C 11.8°F-11.2°C 82% 2.3 mph E3.7 kmh E 4.6 mph7.4 kmh 30.30 in1026.1 mb - 0.00 in0.0 mm 0.00 in0.0 mm
12:50 PM 16.4°F-8.7°C 11.9°F-11.2°C 82% 2.3 mph ENE3.7 kmh ENE 2.3 mph3.7 kmh 30.30 in1026.1 mb - 0.00 in0.0 mm 0.00 in0.0 mm
01:00 PM 16.9°F-8.4°C 12.4°F-10.9°C 82% 1.2 mph E1.9 kmh E 2.3 mph3.7 kmh 30.30 in1026.1 mb - 0.00 in0.0 mm 0.00 in0.0 mm
01:10 PM 17.2°F-8.2°C 12.6°F-10.8°C 82% 1.2 mph E1.9 kmh E 3.5 mph5.6 kmh 30.30 in1026.1 mb - 0.00 in0.0 mm 0.00 in0.0 mm
01:20 PM 17.2°F-8.2°C 12.4°F-10.9°C 81% 2.3 mph NE3.7 kmh NE 3.5 mph5.6 kmh 30.30 in1026.1 mb - 0.00 in0.0 mm 0.00 in0.0 mm
01:30 PM 17.2°F-8.2°C 12.6°F-10.8°C 82% 2.3 mph E3.7 kmh E 4.6 mph7.4 kmh 30.30 in1026.1 mb - 0.00 in0.0 mm 0.00 in0.0 mm
01:40 PM 17.4°F-8.1°C 12.6°F-10.8°C 81% 2.3 mph ENE3.7 kmh ENE 3.5 mph5.6 kmh 30.30 in1026.1 mb - 0.00 in0.0 mm 0.00 in0.0 mm
01:50 PM 17.7°F-7.9°C 13.1°F-10.5°C 82% 1.2 mph NE1.9 kmh NE 2.3 mph3.7 kmh 30.30 in1026.1 mb - 0.00 in0.0 mm 0.00 in0.0 mm
02:00 PM 18.3°F-7.6°C 13.7°F-10.2°C 82% 2.3 mph E3.7 kmh E 3.5 mph5.6 kmh 30.30 in1026.1 mb - 0.00 in0.0 mm 0.00 in0.0 mm
02:10 PM 18.9°F-7.3°C 14.3°F-9.8°C 82% 2.3 mph ENE3.7 kmh ENE 4.6 mph7.4 kmh 30.29 in1025.7 mb - 0.00 in0.0 mm 0.00 in0.0 mm
02:20 PM 19.3°F-7.1°C 14.4°F-9.8°C 81% 2.3 mph E3.7 kmh E 5.8 mph9.3 kmh 30.28 in1025.4 mb - 0.00 in0.0 mm 0.00 in0.0 mm
02:30 PM 19.1°F-7.2°C 14.2°F-9.9°C 81% 4.6 mph E7.4 kmh E 9.2 mph14.8 kmh 30.28 in1025.4 mb - 0.00 in0.0 mm 0.00 in0.0 mm
02:40 PM 19.4°F-7.0°C 14.5°F-9.7°C 81% 2.3 mph E3.7 kmh E 5.8 mph9.3 kmh 30.27 in1025.1 mb - 0.00 in0.0 mm 0.00 in0.0 mm
02:50 PM 19.4°F-7.0°C 14.2°F-9.9°C 80% 2.3 mph E3.7 kmh E 3.5 mph5.6 kmh 30.27 in1025.1 mb - 0.00 in0.0 mm 0.00 in0.0 mm
03:00 PM 19.4°F-7.0°C 14.5°F-9.7°C 81% 3.5 mph ENE5.6 kmh ENE 4.6 mph7.4 kmh 30.27 in1025.1 mb - 0.00 in0.0 mm 0.00 in0.0 mm
03:10 PM 19.3°F-7.1°C 14.4°F-9.8°C 81% 1.2 mph ESE1.9 kmh ESE 3.5 mph5.6 kmh 30.27 in1025.1 mb - 0.00 in0.0 mm 0.00 in0.0 mm
03:20 PM 19.5°F-6.9°C 14.3°F-9.8°C 80% 3.5 mph ENE5.6 kmh ENE 5.8 mph9.3 kmh 30.27 in1025.1 mb - 0.00 in0.0 mm 0.00 in0.0 mm
03:30 PM 19.4°F-7.0°C 14.5°F-9.7°C 81% 4.6 mph NE7.4 kmh NE 8.1 mph13.0 kmh 30.27 in1025.1 mb - 0.00 in0.0 mm 0.00 in0.0 mm
03:40 PM 19.6°F-6.9°C 14.4°F-9.8°C 80% 1.2 mph ENE1.9 kmh ENE 2.3 mph3.7 kmh 30.28 in1025.4 mb - 0.00 in0.0 mm 0.00 in0.0 mm
03:50 PM 19.7°F-6.8°C 14.8°F-9.6°C 81% 1.2 mph E1.9 kmh E 3.5 mph5.6 kmh 30.28 in1025.4 mb - 0.00 in0.0 mm 0.00 in0.0 mm
04:00 PM 19.7°F-6.8°C 14.8°F-9.6°C 81% 1.2 mph NE1.9 kmh NE 3.5 mph5.6 kmh 30.28 in1025.4 mb - 0.00 in0.0 mm 0.00 in0.0 mm
04:10 PM 19.7°F-6.8°C 14.8°F-9.6°C 81% 1.2 mph E1.9 kmh E 2.3 mph3.7 kmh 30.28 in1025.4 mb - 0.00 in0.0 mm 0.00 in0.0 mm
04:20 PM 19.8°F-6.8°C 14.6°F-9.7°C 80% 2.3 mph SE3.7 kmh SE 4.6 mph7.4 kmh 30.28 in1025.4 mb - 0.00 in0.0 mm 0.00 in0.0 mm
04:30 PM 20.0°F-6.7°C 14.5°F-9.7°C 79% 2.3 mph ENE3.7 kmh ENE 3.5 mph5.6 kmh 30.28 in1025.4 mb - 0.00 in0.0 mm 0.00 in0.0 mm
04:40 PM 20.3°F-6.5°C 15.1°F-9.4°C 80% 1.2 mph ENE1.9 kmh ENE 2.3 mph3.7 kmh 30.29 in1025.7 mb - 0.00 in0.0 mm 0.00 in0.0 mm
04:50 PM 20.2°F-6.6°C 15.0°F-9.4°C 80% 1.2 mph E1.9 kmh E 2.3 mph3.7 kmh 30.28 in1025.4 mb - 0.00 in0.0 mm 0.00 in0.0 mm
05:00 PM 20.0°F-6.7°C 14.5°F-9.7°C 79% 1.2 mph ENE1.9 kmh ENE 2.3 mph3.7 kmh 30.29 in1025.7 mb - 0.00 in0.0 mm 0.00 in0.0 mm
05:10 PM 19.8°F-6.8°C 14.6°F-9.7°C 80% Calm Calm 2.3 mph3.7 kmh 30.29 in1025.7 mb - 0.00 in0.0 mm 0.00 in0.0 mm
05:20 PM 19.7°F-6.8°C 14.8°F-9.6°C 81% Calm Calm 1.2 mph1.9 kmh 30.29 in1025.7 mb - 0.00 in0.0 mm 0.00 in0.0 mm
05:30 PM 19.7°F-6.8°C 14.8°F-9.6°C 81% Calm Calm -- 30.29 in1025.7 mb - 0.00 in0.0 mm 0.00 in0.0 mm
05:40 PM 19.6°F-6.9°C 14.8°F-9.6°C 81% Calm Calm 1.2 mph1.9 kmh 30.29 in1025.7 mb - 0.00 in0.0 mm 0.00 in0.0 mm
05:50 PM 19.6°F-6.9°C 14.7°F-9.6°C 81% 1.2 mph SE1.9 kmh SE 2.3 mph3.7 kmh 30.30 in1026.1 mb - 0.00 in0.0 mm 0.00 in0.0 mm
06:00 PM 19.5°F-6.9°C 14.6°F-9.7°C 81% 1.2 mph SE1.9 kmh SE 1.2 mph1.9 kmh 30.30 in1026.1 mb - 0.00 in0.0 mm 0.00 in0.0 mm
06:10 PM 19.2°F-7.1°C 14.3°F-9.8°C 81% Calm Calm -- 30.30 in1026.1 mb - 0.00 in0.0 mm 0.00 in0.0 mm
06:20 PM 18.8°F-7.3°C 14.5°F-9.7°C 83% Calm Calm -- 30.30 in1026.1 mb - 0.00 in0.0 mm 0.00 in0.0 mm
06:30 PM 18.3°F-7.6°C 14.0°F-10.0°C 83% Calm Calm 1.2 mph1.9 kmh 30.30 in1026.1 mb - 0.00 in0.0 mm 0.00 in0.0 mm
06:40 PM 17.7°F-7.9°C 13.7°F-10.2°C 84% Calm Calm 1.2 mph1.9 kmh 30.31 in1026.4 mb - 0.00 in0.0 mm 0.00 in0.0 mm
06:50 PM 17.3°F-8.2°C 13.6°F-10.2°C 85% Calm Calm -- 30.31 in1026.4 mb - 0.00 in0.0 mm 0.00 in0.0 mm
07:00 PM 16.9°F-8.4°C 13.4°F-10.3°C 86% Calm Calm 1.2 mph1.9 kmh 30.31 in1026.4 mb - 0.00 in0.0 mm 0.00 in0.0 mm
07:10 PM 16.5°F-8.6°C 13.3°F-10.4°C 87% Calm Calm -- 30.32 in1026.8 mb - 0.00 in0.0 mm 0.00 in0.0 mm
07:20 PM 16.3°F-8.7°C 13.3°F-10.4°C 88% Calm Calm -- 30.32 in1026.8 mb - 0.00 in0.0 mm 0.00 in0.0 mm
07:30 PM 16.0°F-8.9°C 13.1°F-10.5°C 88% Calm Calm -- 30.32 in1026.8 mb - 0.00 in0.0 mm 0.00 in0.0 mm
07:40 PM 15.7°F-9.1°C 12.8°F-10.7°C 88% Calm Calm -- 30.32 in1026.8 mb - 0.00 in0.0 mm 0.00 in0.0 mm
07:50 PM 15.5°F-9.2°C 12.6°F-10.8°C 88% Calm Calm -- 30.33 in1027.1 mb - 0.00 in0.0 mm 0.00 in0.0 mm
08:00 PM 15.3°F-9.3°C 12.4°F-10.9°C 88% Calm Calm -- 30.33 in1027.1 mb - 0.00 in0.0 mm 0.00 in0.0 mm
08:10 PM 15.1°F-9.4°C 12.4°F-10.9°C 89% Calm Calm -- 30.32 in1026.8 mb - 0.00 in0.0 mm 0.00 in0.0 mm
08:20 PM 15.0°F-9.4°C 12.3°F-10.9°C 89% 1.2 mph SE1.9 kmh SE 1.2 mph1.9 kmh 30.32 in1026.8 mb - 0.00 in0.0 mm 0.00 in0.0 mm
08:30 PM 14.8°F-9.6°C 12.1°F-11.1°C 89% Calm Calm -- 30.32 in1026.8 mb - 0.00 in0.0 mm 0.00 in0.0 mm
08:40 PM 14.6°F-9.7°C 11.9°F-11.2°C 89% Calm Calm 1.2 mph1.9 kmh 30.32 in1026.8 mb - 0.00 in0.0 mm 0.00 in0.0 mm
08:50 PM 14.2°F-9.9°C 11.5°F-11.4°C 89% Calm Calm 1.2 mph1.9 kmh 30.32 in1026.8 mb - 0.00 in0.0 mm 0.00 in0.0 mm
09:00 PM 13.9°F-10.1°C 11.3°F-11.5°C 89% Calm Calm 1.2 mph1.9 kmh 30.32 in1026.8 mb - 0.00 in0.0 mm 0.00 in0.0 mm
09:10 PM 14.0°F-10.0°C 11.6°F-11.3°C 90% Calm Calm -- 30.32 in1026.8 mb - 0.00 in0.0 mm 0.00 in0.0 mm
09:20 PM 14.3°F-9.8°C 12.1°F-11.1°C 91% Calm Calm -- 30.32 in1026.8 mb - 0.00 in0.0 mm 0.00 in0.0 mm
09:30 PM 14.4°F-9.8°C 12.3°F-10.9°C 91% Calm Calm 1.2 mph1.9 kmh 30.32 in1026.8 mb - 0.00 in0.0 mm 0.00 in0.0 mm
09:40 PM 14.6°F-9.7°C 12.5°F-10.8°C 91% Calm Calm 1.2 mph1.9 kmh 30.33 in1027.1 mb - 0.00 in0.0 mm 0.00 in0.0 mm
09:50 PM 15.0°F-9.4°C 12.8°F-10.7°C 91% 1.2 mph SE1.9 kmh SE 1.2 mph1.9 kmh 30.33 in1027.1 mb - 0.00 in0.0 mm 0.00 in0.0 mm
10:00 PM 15.0°F-9.4°C 12.6°F-10.8°C 90% Calm Calm 1.2 mph1.9 kmh 30.33 in1027.1 mb - 0.00 in0.0 mm 0.00 in0.0 mm
10:10 PM 15.0°F-9.4°C 12.6°F-10.8°C 90% Calm Calm 1.2 mph1.9 kmh 30.33 in1027.1 mb - 0.00 in0.0 mm 0.00 in0.0 mm
10:20 PM 14.9°F-9.5°C 12.5°F-10.8°C 90% Calm Calm 1.2 mph1.9 kmh 30.33 in1027.1 mb - 0.00 in0.0 mm 0.00 in0.0 mm
10:30 PM 15.0°F-9.4°C 12.6°F-10.8°C 90% Calm Calm -- 30.33 in1027.1 mb - 0.00 in0.0 mm 0.00 in0.0 mm
10:40 PM 15.0°F-9.4°C 12.6°F-10.8°C 90% Calm Calm -- 30.34 in1027.4 mb - 0.00 in0.0 mm 0.00 in0.0 mm
10:50 PM 14.8°F-9.6°C 12.2°F-11.0°C 89% Calm Calm 1.2 mph1.9 kmh 30.33 in1027.1 mb - 0.00 in0.0 mm 0.00 in0.0 mm
11:00 PM 14.3°F-9.8°C 11.7°F-11.3°C 89% Calm Calm 1.2 mph1.9 kmh 30.33 in1027.1 mb - 0.00 in0.0 mm 0.00 in0.0 mm
11:10 PM 13.7°F-10.2°C 11.1°F-11.6°C 89% Calm Calm 1.2 mph1.9 kmh 30.33 in1027.1 mb - 0.00 in0.0 mm 0.00 in0.0 mm
11:20 PM 13.1°F-10.5°C 10.5°F-11.9°C 89% Calm Calm -- 30.33 in1027.1 mb - 0.00 in0.0 mm 0.00 in0.0 mm
11:30 PM 12.5°F-10.8°C 9.9°F-12.3°C 89% Calm Calm 1.2 mph1.9 kmh 30.33 in1027.1 mb - 0.00 in0.0 mm 0.00 in0.0 mm
11:40 PM 11.9°F-11.2°C 9.3°F-12.6°C 89% Calm Calm 1.2 mph1.9 kmh 30.33 in1027.1 mb - 0.00 in0.0 mm 0.00 in0.0 mm
11:50 PM 11.4°F-11.4°C 8.8°F-12.9°C 89% Calm Calm -- 30.33 in1027.1 mb - 0.00 in0.0 mm 0.00 in0.0 mm